Time;durP1;ratioP1;P1;durP2;ratioP2;P2;SDS_P1;SDS_P2;PMS_P1;PMS_P2;Temp;Humidity;BMP_temperature;BMP_pressure;BME280_temperature;BME280_humidity;BME280_pressure;Samples;Min_cycle;Max_cycle;Signal;HPM_P1;HPM_P2
2022/06/18 00:01:40;;;;;;;;;;;23.00;62.60;;;;;;5105571;28;19930;-70
2022/06/18 00:04:08;;;;;;;;;;;23.00;62.90;;;;;;5101094;28;19912;-71
2022/06/18 00:06:36;;;;;;;;;;;22.90;62.70;;;;;;5106795;28;19912;-71
2022/06/18 00:09:02;;;;;;;;;;;22.90;62.90;;;;;;5103182;28;19927;-70
2022/06/18 00:14:11;;;;;;;;;;;22.90;63.00;;;;;;5104240;28;19969;-71
2022/06/18 00:16:37;;;;;;;;;;;22.80;62.90;;;;;;5103538;28;19933;-71
2022/06/18 00:19:03;;;;;;;;;;;22.90;63.00;;;;;;5100739;28;19943;-70
2022/06/18 00:21:28;;;;;;;;;;;22.80;63.10;;;;;;5101098;28;19920;-70
2022/06/18 00:23:54;;;;;;;;;;;22.80;63.10;;;;;;5103769;28;19916;-71
2022/06/18 00:26:19;;;;;;;;;;;22.70;62.90;;;;;;5105673;28;19920;-70
2022/06/18 00:28:45;;;;;;;;;;;22.70;63.00;;;;;;5104532;28;20627;-70
2022/06/18 00:31:11;;;;;;;;;;;22.70;63.00;;;;;;5104658;28;19908;-70
2022/06/18 00:33:39;;;;;;;;;;;22.70;63.20;;;;;;5107277;27;20342;-70
2022/06/18 00:36:05;;;;;;;;;;;22.70;63.30;;;;;;5103164;28;20271;-70
2022/06/18 00:38:32;;;;;;;;;;;22.70;63.30;;;;;;5104954;28;20507;-70
2022/06/18 00:40:58;;;;;;;;;;;22.60;63.20;;;;;;5099022;28;19915;-70
2022/06/18 00:43:25;;;;;;;;;;;22.60;63.20;;;;;;5105118;28;19916;-70
2022/06/18 00:45:53;;;;;;;;;;;22.60;63.20;;;;;;5103420;28;20013;-70
2022/06/18 00:48:21;;;;;;;;;;;22.60;63.20;;;;;;5099745;28;19911;-71
2022/06/18 00:50:50;;;;;;;;;;;22.60;63.20;;;;;;5103321;28;20010;-70
2022/06/18 00:53:21;;;;;;;;;;;22.50;63.20;;;;;;5099731;28;19916;-70
2022/06/18 00:55:52;;;;;;;;;;;22.50;63.40;;;;;;5097798;28;19922;-70
2022/06/18 00:58:18;;;;;;;;;;;22.50;63.30;;;;;;5101494;28;19911;-70
2022/06/18 01:00:47;;;;;;;;;;;22.50;63.30;;;;;;5102881;28;19916;-71
2022/06/18 01:03:22;;;;;;;;;;;22.50;63.30;;;;;;5104529;28;19915;-70
2022/06/18 01:05:47;;;;;;;;;;;22.50;63.30;;;;;;5103175;28;19959;-70
2022/06/18 01:08:17;;;;;;;;;;;22.50;63.40;;;;;;5103651;28;19943;-70
2022/06/18 01:10:48;;;;;;;;;;;22.40;63.30;;;;;;5101227;28;19928;-70
2022/06/18 01:13:17;;;;;;;;;;;22.40;63.30;;;;;;5105052;28;20398;-70
2022/06/18 01:15:43;;;;;;;;;;;22.40;63.30;;;;;;5103666;28;19998;-70
2022/06/18 01:18:09;;;;;;;;;;;22.40;63.40;;;;;;5105589;28;19941;-70
2022/06/18 01:20:43;;;;;;;;;;;22.40;63.40;;;;;;5104439;28;19911;-70
2022/06/18 01:23:13;;;;;;;;;;;22.40;63.40;;;;;;5104694;28;20006;-71
2022/06/18 01:25:39;;;;;;;;;;;22.40;63.30;;;;;;5105930;28;19922;-70
2022/06/18 01:28:04;;;;;;;;;;;22.40;63.50;;;;;;5102339;28;20292;-71
2022/06/18 01:30:32;;;;;;;;;;;22.40;63.30;;;;;;5105348;28;20406;-70
2022/06/18 01:32:58;;;;;;;;;;;22.30;63.20;;;;;;5099166;28;20061;-70
2022/06/18 01:35:23;;;;;;;;;;;22.30;63.40;;;;;;5103676;28;20602;-70
2022/06/18 01:37:49;;;;;;;;;;;22.30;63.50;;;;;;5101929;28;19920;-70
2022/06/18 01:40:20;;;;;;;;;;;22.20;63.50;;;;;;5105036;28;19921;-70
2022/06/18 01:42:47;;;;;;;;;;;22.20;63.50;;;;;;5100462;28;20082;-70
2022/06/18 01:45:17;;;;;;;;;;;22.20;63.50;;;;;;5105543;28;19947;-70
2022/06/18 01:47:49;;;;;;;;;;;22.20;63.40;;;;;;5101137;28;20022;-70
2022/06/18 01:50:14;;;;;;;;;;;22.20;63.50;;;;;;5105643;28;19943;-70
2022/06/18 01:52:41;;;;;;;;;;;22.20;63.40;;;;;;5094922;28;20555;-70
2022/06/18 01:55:10;;;;;;;;;;;22.20;63.50;;;;;;5104208;28;19919;-70
2022/06/18 01:57:38;;;;;;;;;;;22.20;63.40;;;;;;5100457;28;19916;-70
2022/06/18 02:00:14;;;;;;;;;;;22.10;63.60;;;;;;5104997;28;20508;-70
2022/06/18 02:02:41;;;;;;;;;;;22.10;63.70;;;;;;5101531;28;19937;-70
2022/06/18 02:05:07;;;;;;;;;;;22.10;63.70;;;;;;5103068;28;19919;-71
2022/06/18 02:07:33;;;;;;;;;;;22.10;63.50;;;;;;5099228;28;19912;-70
2022/06/18 02:10:01;;;;;;;;;;;22.10;63.60;;;;;;5096970;28;20372;-70
2022/06/18 02:12:34;;;;;;;;;;;22.00;63.70;;;;;;5097166;28;19912;-70
2022/06/18 02:15:05;;;;;;;;;;;22.00;63.70;;;;;;5101375;28;19922;-70
2022/06/18 02:17:32;;;;;;;;;;;22.00;63.70;;;;;;5102636;28;20292;-70
2022/06/18 02:20:04;;;;;;;;;;;22.00;63.70;;;;;;5100705;28;19946;-70
2022/06/18 02:22:33;;;;;;;;;;;22.00;63.70;;;;;;5100234;28;20683;-70
2022/06/18 02:24:59;;;;;;;;;;;22.00;64.10;;;;;;5101876;28;20018;-70
2022/06/18 02:27:25;;;;;;;;;;;21.90;63.90;;;;;;5101305;28;19912;-71
2022/06/18 02:29:50;;;;;;;;;;;21.90;63.90;;;;;;5100448;28;19920;-71
2022/06/18 02:32:28;;;;;;;;;;;21.90;63.90;;;;;;5098203;28;20006;-70
2022/06/18 02:34:54;;;;;;;;;;;21.90;64.00;;;;;;5101184;28;19923;-70
2022/06/18 02:37:22;;;;;;;;;;;21.90;64.10;;;;;;5101013;28;19911;-70
2022/06/18 02:39:56;;;;;;;;;;;21.80;64.20;;;;;;5100254;28;20022;-70
2022/06/18 02:42:22;;;;;;;;;;;21.80;64.30;;;;;;5103846;28;19985;-70
2022/06/18 02:44:48;;;;;;;;;;;21.80;65.00;;;;;;5101487;28;19927;-70
2022/06/18 02:47:14;;;;;;;;;;;21.80;64.40;;;;;;5104398;28;20436;-70
2022/06/18 02:49:43;;;;;;;;;;;21.80;64.40;;;;;;5102348;28;19920;-70
2022/06/18 02:52:08;;;;;;;;;;;21.80;64.20;;;;;;5103731;28;20594;-70
2022/06/18 02:54:34;;;;;;;;;;;21.80;64.20;;;;;;5102022;28;19915;-70
2022/06/18 02:57:02;;;;;;;;;;;21.70;64.10;;;;;;5102909;28;19938;-71
2022/06/18 02:59:28;;;;;;;;;;;21.70;64.20;;;;;;5103860;28;19916;-70
2022/06/18 03:01:54;;;;;;;;;;;21.70;64.00;;;;;;5100617;28;20672;-70
2022/06/18 03:04:19;;;;;;;;;;;21.70;64.20;;;;;;5104146;28;19918;-70
2022/06/18 03:06:44;;;;;;;;;;;21.70;64.30;;;;;;5098707;28;19916;-70
2022/06/18 03:09:10;;;;;;;;;;;21.70;64.40;;;;;;5104653;28;19908;-70
2022/06/18 03:14:21;;;;;;;;;;;21.60;64.20;;;;;;5105162;28;19954;-70
2022/06/18 03:16:47;;;;;;;;;;;21.60;64.20;;;;;;5097538;28;19916;-70
2022/06/18 03:19:29;;;;;;;;;;;21.60;64.10;;;;;;5102252;28;19912;-70
2022/06/18 03:21:57;;;;;;;;;;;21.60;64.20;;;;;;5100310;28;19915;-70
2022/06/18 03:24:23;;;;;;;;;;;21.60;64.40;;;;;;5104558;28;20569;-70
2022/06/18 03:26:48;;;;;;;;;;;21.60;64.50;;;;;;5092841;28;19951;-70
2022/06/18 03:29:14;;;;;;;;;;;21.60;64.70;;;;;;5103312;28;19912;-70
2022/06/18 03:31:40;;;;;;;;;;;21.60;64.60;;;;;;5099928;28;20291;-70
2022/06/18 03:34:05;;;;;;;;;;;21.50;64.40;;;;;;5105024;28;19911;-70
2022/06/18 03:36:31;;;;;;;;;;;21.50;64.40;;;;;;5102951;28;20582;-70
2022/06/18 03:38:56;;;;;;;;;;;21.50;64.40;;;;;;5107678;28;20472;-71
2022/06/18 03:41:22;;;;;;;;;;;21.50;64.50;;;;;;5103504;28;19918;-70
2022/06/18 03:43:48;;;;;;;;;;;21.50;64.40;;;;;;5104571;28;19918;-70
2022/06/18 03:46:15;;;;;;;;;;;21.50;65.10;;;;;;5107882;28;20412;-70
2022/06/18 03:48:58;;;;;;;;;;;21.50;64.60;;;;;;5100636;28;19959;-70
2022/06/18 03:51:23;;;;;;;;;;;21.50;64.70;;;;;;5107306;27;19919;-70
2022/06/18 03:53:49;;;;;;;;;;;21.50;64.50;;;;;;5100580;28;20398;-70
2022/06/18 03:56:16;;;;;;;;;;;21.50;64.40;;;;;;5107636;28;19915;-70
2022/06/18 03:58:43;;;;;;;;;;;21.50;64.40;;;;;;5102458;28;20019;-70
2022/06/18 04:01:09;;;;;;;;;;;21.50;64.80;;;;;;5106784;28;20006;-70
2022/06/18 04:03:34;;;;;;;;;;;21.50;64.40;;;;;;5101338;27;20463;-70
2022/06/18 04:06:00;;;;;;;;;;;21.50;64.40;;;;;;5106550;28;19924;-70
2022/06/18 04:08:26;;;;;;;;;;;21.40;64.50;;;;;;5101610;28;19920;-70
2022/06/18 04:10:51;;;;;;;;;;;21.40;64.40;;;;;;5107314;28;19951;-70
2022/06/18 04:13:17;;;;;;;;;;;21.40;64.40;;;;;;5099872;27;19922;-70
2022/06/18 04:15:42;;;;;;;;;;;21.40;64.60;;;;;;5106859;28;20325;-70
2022/06/18 04:18:09;;;;;;;;;;;21.40;64.10;;;;;;5100430;28;19966;-70
2022/06/18 04:20:36;;;;;;;;;;;21.40;64.20;;;;;;5103429;28;20002;-70
2022/06/18 04:23:02;;;;;;;;;;;21.40;64.20;;;;;;5102084;27;19920;-70
2022/06/18 04:25:28;;;;;;;;;;;21.40;64.30;;;;;;5106727;27;19922;-70
2022/06/18 04:27:57;;;;;;;;;;;21.40;64.30;;;;;;5106561;27;20003;-70
2022/06/18 04:30:24;;;;;;;;;;;21.40;64.30;;;;;;5101852;28;19922;-70
2022/06/18 04:32:49;;;;;;;;;;;21.40;64.30;;;;;;5103717;28;19981;-70
2022/06/18 04:35:15;;;;;;;;;;;21.40;64.40;;;;;;5100331;28;20507;-70
2022/06/18 04:37:46;;;;;;;;;;;21.40;64.20;;;;;;5105913;28;19991;-70
2022/06/18 04:40:16;;;;;;;;;;;21.40;64.30;;;;;;5103109;28;19916;-70
2022/06/18 04:42:42;;;;;;;;;;;21.40;64.50;;;;;;5103619;28;19997;-70
2022/06/18 04:45:08;;;;;;;;;;;21.40;64.40;;;;;;5097182;28;20008;-70
2022/06/18 04:47:35;;;;;;;;;;;21.40;64.40;;;;;;5103074;28;19927;-70
2022/06/18 04:50:00;;;;;;;;;;;21.40;64.50;;;;;;5097148;28;19912;-70
2022/06/18 04:52:26;;;;;;;;;;;21.40;64.50;;;;;;5104971;28;19923;-70
2022/06/18 04:54:54;;;;;;;;;;;21.40;64.60;;;;;;5102442;28;19998;-70
2022/06/18 04:57:20;;;;;;;;;;;21.40;64.50;;;;;;5103954;28;19920;-70
2022/06/18 04:59:46;;;;;;;;;;;21.40;64.50;;;;;;5102494;28;19911;-70
2022/06/18 05:02:20;;;;;;;;;;;21.40;64.40;;;;;;5105881;28;20360;-70
2022/06/18 05:04:46;;;;;;;;;;;21.50;64.50;;;;;;5097344;28;20596;-70
2022/06/18 05:07:11;;;;;;;;;;;21.50;64.50;;;;;;5105987;28;19915;-70
2022/06/18 05:09:37;;;;;;;;;;;21.50;64.60;;;;;;5102423;28;19908;-71
2022/06/18 05:12:03;;;;;;;;;;;21.50;64.50;;;;;;5105479;28;19963;-70
2022/06/18 05:14:28;;;;;;;;;;;21.50;64.50;;;;;;5105765;28;19912;-71
2022/06/18 05:16:53;;;;;;;;;;;21.50;64.60;;;;;;5100829;28;19926;-70
2022/06/18 05:19:23;;;;;;;;;;;21.50;64.50;;;;;;5103595;28;19912;-70
2022/06/18 05:21:50;;;;;;;;;;;21.50;64.50;;;;;;5099725;28;19969;-72
2022/06/18 05:24:15;;;;;;;;;;;21.50;64.40;;;;;;5105524;28;19961;-70
2022/06/18 05:26:43;;;;;;;;;;;21.50;64.50;;;;;;5101250;28;19923;-71
2022/06/18 05:29:10;;;;;;;;;;;21.50;64.40;;;;;;5104903;28;19947;-71
2022/06/18 05:31:36;;;;;;;;;;;21.50;64.40;;;;;;5095756;28;19919;-70
2022/06/18 05:34:01;;;;;;;;;;;21.60;64.60;;;;;;5104495;28;19918;-72
2022/06/18 05:36:27;;;;;;;;;;;21.60;64.60;;;;;;5098461;28;19922;-70
2022/06/18 05:38:53;;;;;;;;;;;21.50;64.50;;;;;;5103216;28;19962;-71
2022/06/18 05:41:18;;;;;;;;;;;21.60;64.60;;;;;;5100356;28;19916;-70
2022/06/18 05:43:44;;;;;;;;;;;21.60;64.70;;;;;;5104697;28;19918;-70
2022/06/18 05:46:11;;;;;;;;;;;21.60;64.60;;;;;;5100476;28;19941;-70
2022/06/18 05:48:36;;;;;;;;;;;21.60;64.60;;;;;;5102759;28;19916;-69
2022/06/18 05:51:02;;;;;;;;;;;21.60;64.50;;;;;;5105389;28;20021;-71
2022/06/18 05:53:28;;;;;;;;;;;21.70;64.90;;;;;;5098017;28;19922;-70
2022/06/18 05:55:53;;;;;;;;;;;21.60;64.40;;;;;;5105334;28;19911;-70
2022/06/18 05:58:19;;;;;;;;;;;21.60;64.70;;;;;;5097960;28;19920;-71
2022/06/18 06:00:44;;;;;;;;;;;21.70;64.50;;;;;;5104616;28;20458;-70
2022/06/18 06:03:10;;;;;;;;;;;21.70;64.60;;;;;;5095151;28;19918;-70
2022/06/18 06:05:35;;;;;;;;;;;21.70;64.80;;;;;;5104164;28;20702;-70
2022/06/18 06:08:01;;;;;;;;;;;21.80;65.40;;;;;;5096821;28;20014;-70
2022/06/18 06:13:12;;;;;;;;;;;21.80;64.80;;;;;;5095259;28;19923;-70
2022/06/18 06:15:39;;;;;;;;;;;21.80;64.60;;;;;;5103869;28;19912;-70
2022/06/18 06:18:04;;;;;;;;;;;21.80;64.50;;;;;;5099446;28;20061;-70
2022/06/18 06:20:32;;;;;;;;;;;21.90;64.50;;;;;;5095824;28;19998;-70
2022/06/18 06:22:58;;;;;;;;;;;21.90;64.50;;;;;;5100053;28;20431;-71
2022/06/18 06:25:23;;;;;;;;;;;21.90;64.60;;;;;;5104692;28;19939;-70
2022/06/18 06:27:49;;;;;;;;;;;21.90;64.30;;;;;;5099105;28;20570;-70
2022/06/18 06:30:16;;;;;;;;;;;21.90;64.40;;;;;;5102089;28;20299;-71
2022/06/18 06:32:42;;;;;;;;;;;21.90;64.40;;;;;;5101898;28;19918;-71
2022/06/18 06:35:08;;;;;;;;;;;22.00;64.40;;;;;;5099863;28;19923;-71
2022/06/18 06:37:34;;;;;;;;;;;22.00;64.50;;;;;;5102671;28;20333;-70
2022/06/18 06:39:59;;;;;;;;;;;22.00;64.70;;;;;;5099893;28;19915;-70
2022/06/18 06:42:25;;;;;;;;;;;22.10;64.70;;;;;;5103423;28;19916;-71
2022/06/18 06:44:50;;;;;;;;;;;22.10;64.60;;;;;;5099164;28;19919;-70
2022/06/18 06:47:16;;;;;;;;;;;22.10;64.60;;;;;;5104538;28;20002;-70
2022/06/18 06:49:42;;;;;;;;;;;22.10;64.50;;;;;;5097551;28;20376;-71
2022/06/18 06:52:09;;;;;;;;;;;22.10;64.70;;;;;;5104004;28;19926;-71
2022/06/18 06:54:35;;;;;;;;;;;22.20;64.50;;;;;;5096825;28;19997;-70
2022/06/18 06:59:45;;;;;;;;;;;22.20;64.40;;;;;;5099180;28;19922;-71
2022/06/18 07:02:14;;;;;;;;;;;22.30;64.80;;;;;;5103861;28;20157;-70
2022/06/18 07:04:39;;;;;;;;;;;22.30;64.70;;;;;;5096613;28;19924;-71
2022/06/18 07:07:05;;;;;;;;;;;22.30;64.40;;;;;;5104254;28;19919;-70
2022/06/18 07:09:30;;;;;;;;;;;22.30;64.40;;;;;;5099262;28;19924;-71
2022/06/18 07:11:56;;;;;;;;;;;22.40;64.80;;;;;;5107018;28;19936;-71
2022/06/18 07:14:21;;;;;;;;;;;22.40;64.80;;;;;;5105613;28;19918;-71
2022/06/18 07:16:50;;;;;;;;;;;22.40;64.60;;;;;;5105710;28;19918;-70
2022/06/18 07:19:17;;;;;;;;;;;22.50;64.70;;;;;;5107160;28;19916;-70
2022/06/18 07:21:42;;;;;;;;;;;22.50;64.80;;;;;;5096108;28;19915;-71
2022/06/18 07:24:08;;;;;;;;;;;22.50;64.70;;;;;;5107655;28;20245;-71
2022/06/18 07:26:33;;;;;;;;;;;22.50;64.40;;;;;;5100434;28;19926;-71
2022/06/18 07:28:59;;;;;;;;;;;22.60;64.50;;;;;;5106739;28;20328;-70
2022/06/18 07:31:29;;;;;;;;;;;22.60;64.50;;;;;;5102084;28;19916;-71
2022/06/18 07:33:55;;;;;;;;;;;22.60;64.50;;;;;;5107770;28;19937;-71
2022/06/18 07:36:20;;;;;;;;;;;22.60;64.50;;;;;;5104725;28;19919;-71
2022/06/18 07:38:46;;;;;;;;;;;22.70;64.40;;;;;;5105715;28;19994;-70
2022/06/18 07:41:14;;;;;;;;;;;22.70;64.30;;;;;;5102199;28;19936;-71
2022/06/18 07:43:45;;;;;;;;;;;22.70;64.40;;;;;;5104887;28;19924;-71
2022/06/18 07:46:11;;;;;;;;;;;22.70;64.30;;;;;;5103167;28;19920;-71
2022/06/18 07:48:39;;;;;;;;;;;22.80;64.30;;;;;;5107382;28;19919;-71
2022/06/18 07:54:09;;;;;;;;;;;22.80;64.60;;;;;;5080292;22;20343;-77
2022/06/18 07:56:35;;;;;;;;;;;22.90;64.40;;;;;;5064803;28;19924;-77
2022/06/18 07:59:00;;;;;;;;;;;22.90;64.40;;;;;;5068715;28;19917;-77
2022/06/18 08:01:26;;;;;;;;;;;23.00;64.50;;;;;;5061838;28;19908;-77
2022/06/18 08:03:52;;;;;;;;;;;23.00;64.20;;;;;;5065648;28;19916;-77
2022/06/18 08:06:17;;;;;;;;;;;23.00;64.10;;;;;;5068163;28;20512;-77
2022/06/18 08:08:43;;;;;;;;;;;23.00;64.10;;;;;;5064514;28;19923;-77
2022/06/18 08:11:13;;;;;;;;;;;23.10;64.30;;;;;;5068074;28;19913;-77
2022/06/18 08:13:38;;;;;;;;;;;23.10;64.00;;;;;;5065120;28;20512;-77
2022/06/18 08:16:04;;;;;;;;;;;23.10;64.00;;;;;;5068041;28;19916;-77
2022/06/18 08:18:30;;;;;;;;;;;23.20;63.90;;;;;;5065790;28;19916;-77
2022/06/18 08:21:01;;;;;;;;;;;23.20;64.00;;;;;;5065531;28;19913;-77
2022/06/18 08:23:27;;;;;;;;;;;23.20;63.90;;;;;;5063992;28;19978;-77
2022/06/18 08:25:52;;;;;;;;;;;23.30;64.10;;;;;;5068186;28;20011;-77
2022/06/18 08:28:18;;;;;;;;;;;23.30;64.10;;;;;;5062031;28;19975;-77
2022/06/18 08:30:44;;;;;;;;;;;23.30;64.00;;;;;;5066298;28;20258;-77
2022/06/18 08:33:09;;;;;;;;;;;23.40;63.80;;;;;;5063782;28;20070;-77
2022/06/18 08:35:37;;;;;;;;;;;23.40;64.60;;;;;;5068222;28;20592;-78
2022/06/18 08:38:05;;;;;;;;;;;23.50;64.10;;;;;;5064865;28;20007;-77
2022/06/18 08:40:36;;;;;;;;;;;23.50;64.00;;;;;;5067814;28;19915;-78
2022/06/18 08:43:07;;;;;;;;;;;23.60;63.90;;;;;;5062471;28;19913;-78
2022/06/18 08:45:32;;;;;;;;;;;23.60;63.90;;;;;;5064779;28;19924;-78
2022/06/18 08:48:06;;;;;;;;;;;23.60;64.00;;;;;;5068226;28;20009;-77
2022/06/18 08:50:41;;;;;;;;;;;23.70;64.60;;;;;;5062962;28;20127;-78
2022/06/18 08:53:06;;;;;;;;;;;23.70;63.80;;;;;;5066182;28;19947;-78
2022/06/18 08:55:32;;;;;;;;;;;23.80;63.90;;;;;;5065379;28;20417;-77
2022/06/18 08:58:00;;;;;;;;;;;23.80;63.50;;;;;;5067493;28;20019;-78
2022/06/18 09:00:55;;;;;;;;;;;23.90;63.60;;;;;;5065785;28;20031;-78
2022/06/18 09:03:26;;;;;;;;;;;23.90;63.50;;;;;;5047576;28;19917;-78
2022/06/18 09:05:52;;;;;;;;;;;24.00;63.30;;;;;;5065374;28;19926;-78
2022/06/18 09:08:34;;;;;;;;;;;24.00;63.20;;;;;;5066632;28;20606;-78
2022/06/18 09:11:03;;;;;;;;;;;24.10;63.30;;;;;;5058723;28;19919;-77
2022/06/18 09:13:33;;;;;;;;;;;24.10;63.20;;;;;;5066581;28;20488;-78
2022/06/18 09:16:00;;;;;;;;;;;24.10;63.10;;;;;;5061054;28;19924;-78
2022/06/18 09:18:29;;;;;;;;;;;24.20;63.40;;;;;;5066972;28;19923;-78
2022/06/18 09:20:56;;;;;;;;;;;24.20;63.00;;;;;;5061822;28;19916;-77
2022/06/18 09:23:21;;;;;;;;;;;24.30;63.00;;;;;;5065342;28;20015;-77
2022/06/18 09:25:49;;;;;;;;;;;24.30;62.70;;;;;;5063804;28;20015;-78
2022/06/18 09:28:19;;;;;;;;;;;24.40;62.70;;;;;;5065539;28;19912;-77
2022/06/18 09:30:50;;;;;;;;;;;24.50;62.80;;;;;;5062192;28;19920;-77
2022/06/18 09:33:18;;;;;;;;;;;24.50;62.60;;;;;;5064657;28;20423;-78
2022/06/18 09:35:53;;;;;;;;;;;24.50;62.60;;;;;;5063657;28;20015;-77
2022/06/18 09:38:21;;;;;;;;;;;24.60;62.60;;;;;;5064834;28;19916;-77
2022/06/18 09:40:51;;;;;;;;;;;24.70;62.80;;;;;;5063439;28;19916;-78
2022/06/18 09:43:17;;;;;;;;;;;24.70;62.40;;;;;;5063208;28;19963;-77
2022/06/18 09:45:45;;;;;;;;;;;24.80;62.80;;;;;;5061197;28;19955;-77
2022/06/18 09:48:12;;;;;;;;;;;24.80;62.60;;;;;;5065963;28;19912;-77
2022/06/18 09:50:37;;;;;;;;;;;24.90;62.60;;;;;;5064586;28;19917;-77
2022/06/18 09:53:29;;;;;;;;;;;25.00;62.30;;;;;;5062581;28;19920;-77
2022/06/18 09:56:01;;;;;;;;;;;25.00;62.40;;;;;;5061631;28;19998;-77
2022/06/18 09:58:29;;;;;;;;;;;25.10;62.50;;;;;;5063008;28;20039;-77
2022/06/18 10:00:56;;;;;;;;;;;25.20;62.40;;;;;;5063396;28;19912;-77
2022/06/18 10:09:07;;;;;;;;;;;25.30;62.30;;;;;;5058623;28;20001;-77
2022/06/18 10:11:33;;;;;;;;;;;25.50;62.10;;;;;;5063286;28;19913;-77
2022/06/18 10:13:58;;;;;;;;;;;25.50;62.10;;;;;;5060120;28;19912;-77
2022/06/18 10:16:44;;;;;;;;;;;25.60;61.90;;;;;;5065480;28;19963;-77
2022/06/18 10:19:28;;;;;;;;;;;25.60;61.80;;;;;;5076431;28;19912;-77
2022/06/18 10:22:13;;;;;;;;;;;25.80;61.90;;;;;;5062830;28;19962;-77
2022/06/18 10:24:54;;;;;;;;;;;25.80;61.80;;;;;;5058959;28;19942;-76
2022/06/18 10:27:25;;;;;;;;;;;25.90;61.70;;;;;;5062138;28;20280;-77
2022/06/18 10:29:58;;;;;;;;;;;25.90;61.90;;;;;;5064606;28;19912;-77
2022/06/18 10:32:29;;;;;;;;;;;26.00;61.70;;;;;;5061717;28;19912;-77
2022/06/18 10:35:16;;;;;;;;;;;26.10;61.60;;;;;;5064084;28;19909;-77
2022/06/18 10:38:20;;;;;;;;;;;26.10;61.70;;;;;;5060362;28;19940;-78
2022/06/18 10:41:03;;;;;;;;;;;26.30;61.70;;;;;;4977979;28;20524;-78
2022/06/18 10:43:36;;;;;;;;;;;26.30;61.70;;;;;;4978270;28;19940;-78
2022/06/18 10:46:06;;;;;;;;;;;26.40;61.60;;;;;;5037714;28;19920;-78
2022/06/18 10:48:32;;;;;;;;;;;26.50;61.80;;;;;;5064511;28;19944;-78
2022/06/18 10:50:59;;;;;;;;;;;26.60;61.60;;;;;;5062376;28;19913;-78
2022/06/18 10:53:26;;;;;;;;;;;26.70;61.50;;;;;;5064031;28;20002;-78
2022/06/18 10:55:56;;;;;;;;;;;26.80;61.40;;;;;;5067501;28;20456;-78
2022/06/18 10:58:22;;;;;;;;;;;26.90;61.50;;;;;;5066554;28;19916;-78
2022/06/18 11:00:55;;;;;;;;;;;27.00;61.70;;;;;;5063843;28;19916;-77
2022/06/18 11:03:25;;;;;;;;;;;27.10;61.30;;;;;;5067994;28;20593;-78
2022/06/18 11:05:50;;;;;;;;;;;27.20;61.20;;;;;;5064342;28;19920;-78
2022/06/18 11:08:18;;;;;;;;;;;27.30;61.10;;;;;;5068862;28;19923;-78
2022/06/18 11:10:49;;;;;;;;;;;27.40;61.10;;;;;;5060570;28;19917;-78
2022/06/18 11:13:19;;;;;;;;;;;27.50;61.00;;;;;;5066701;28;19924;-79
2022/06/18 11:15:45;;;;;;;;;;;27.60;60.80;;;;;;5063005;28;19916;-78
2022/06/18 11:18:15;;;;;;;;;;;27.70;60.80;;;;;;5067636;28;19956;-78
2022/06/18 11:20:52;;;;;;;;;;;27.80;60.80;;;;;;5062570;28;20121;-78
2022/06/18 11:23:20;;;;;;;;;;;27.90;61.20;;;;;;5067330;28;19995;-78
2022/06/18 11:25:49;;;;;;;;;;;27.90;61.20;;;;;;5063763;28;19974;-78
2022/06/18 11:28:36;;;;;;;;;;;28.00;61.20;;;;;;5064652;28;20592;-79
2022/06/18 11:31:04;;;;;;;;;;;28.10;60.90;;;;;;5061885;28;19917;-79
2022/06/18 11:33:32;;;;;;;;;;;28.20;60.80;;;;;;5067503;28;19964;-78
2022/06/18 11:36:05;;;;;;;;;;;28.30;61.00;;;;;;5060085;28;20646;-78
2022/06/18 11:38:32;;;;;;;;;;;28.40;60.80;;;;;;5067086;28;19913;-79
2022/06/18 11:41:07;;;;;;;;;;;28.40;60.80;;;;;;5062304;28;19994;-79
2022/06/18 11:43:39;;;;;;;;;;;28.50;60.60;;;;;;5067308;28;19916;-78
2022/06/18 11:46:07;;;;;;;;;;;28.60;60.40;;;;;;5059982;28;20430;-78
2022/06/18 11:48:38;;;;;;;;;;;28.70;60.30;;;;;;5067273;28;19912;-79
2022/06/18 11:51:05;;;;;;;;;;;28.70;60.40;;;;;;5062984;28;20345;-79
2022/06/18 11:53:34;;;;;;;;;;;28.80;60.30;;;;;;5065489;28;19923;-78
2022/06/18 11:56:02;;;;;;;;;;;28.90;60.70;;;;;;5062956;28;19917;-78
2022/06/18 11:58:33;;;;;;;;;;;28.90;60.30;;;;;;5067114;28;20509;-79
2022/06/18 12:00:59;;;;;;;;;;;29.00;60.30;;;;;;5059292;28;19931;-78
2022/06/18 12:03:42;;;;;;;;;;;29.10;60.30;;;;;;5065575;28;19916;-79
2022/06/18 12:06:11;;;;;;;;;;;29.20;60.30;;;;;;5062859;28;19930;-78
2022/06/18 12:08:36;;;;;;;;;;;29.30;59.60;;;;;;5067011;28;19965;-78
2022/06/18 12:11:09;;;;;;;;;;;29.40;59.80;;;;;;5065360;28;19912;-79
2022/06/18 12:13:38;;;;;;;;;;;29.40;60.10;;;;;;5064215;28;19949;-79
2022/06/18 12:16:23;;;;;;;;;;;29.50;60.10;;;;;;5063024;28;19913;-79
2022/06/18 12:18:58;;;;;;;;;;;29.50;59.70;;;;;;5064892;28;19930;-78
2022/06/18 12:21:37;;;;;;;;;;;29.60;59.80;;;;;;5062130;28;19916;-72
2022/06/18 12:24:15;;;;;;;;;;;29.60;59.60;;;;;;5067883;28;19916;-75
2022/06/18 12:26:43;;;;;;;;;;;29.50;58.80;;;;;;5067453;28;19917;-78
2022/06/18 12:29:27;;;;;;;;;;;29.00;58.80;;;;;;5061079;28;19944;-77
2022/06/18 12:31:59;;;;;;;;;;;28.70;59.20;;;;;;5062759;28;19924;-77
2022/06/18 12:34:31;;;;;;;;;;;28.50;59.00;;;;;;5063021;28;19916;-74
2022/06/18 12:37:06;;;;;;;;;;;28.30;58.90;;;;;;5066378;28;20688;-74
2022/06/18 12:39:32;;;;;;;;;;;28.20;59.40;;;;;;5062217;28;20444;-71
2022/06/18 12:42:01;;;;;;;;;;;28.10;58.70;;;;;;5065876;28;19913;-71
2022/06/18 12:44:26;;;;;;;;;;;28.10;58.70;;;;;;5062559;28;19924;-70
2022/06/18 12:46:52;;;;;;;;;;;28.10;58.40;;;;;;5065781;28;19909;-71
2022/06/18 12:49:30;;;;;;;;;;;28.10;58.30;;;;;;5061272;28;19927;-71
2022/06/18 12:52:04;;;;;;;;;;;28.00;58.30;;;;;;5063139;28;20315;-71
2022/06/18 12:54:36;;;;;;;;;;;27.90;57.90;;;;;;5061674;28;19951;-71
2022/06/18 12:57:04;;;;;;;;;;;27.90;58.20;;;;;;5064305;28;19920;-71
2022/06/18 12:59:30;;;;;;;;;;;27.90;57.80;;;;;;5062574;28;19969;-71
2022/06/18 13:01:58;;;;;;;;;;;27.90;58.00;;;;;;5063201;28;19916;-71
2022/06/18 13:04:42;;;;;;;;;;;27.90;57.30;;;;;;5058622;28;20492;-70
2022/06/18 13:07:08;;;;;;;;;;;27.90;57.00;;;;;;5063394;28;19920;-71
2022/06/18 13:09:46;;;;;;;;;;;27.90;57.20;;;;;;5061344;28;19917;-71
2022/06/18 13:12:21;;;;;;;;;;;27.90;56.60;;;;;;5059194;28;19935;-70
2022/06/18 13:14:56;;;;;;;;;;;27.90;56.90;;;;;;5060202;28;19927;-71
2022/06/18 13:17:25;;;;;;;;;;;27.80;57.50;;;;;;5062966;28;19995;-71
2022/06/18 13:19:53;;;;;;;;;;;27.90;56.90;;;;;;5059475;28;19974;-71
2022/06/18 13:22:18;;;;;;;;;;;27.90;57.20;;;;;;5058793;28;19917;-71
2022/06/18 13:30:36;;;;;;;;;;;28.00;56.90;;;;;;5059719;28;19924;-71
2022/06/18 13:33:14;;;;;;;;;;;28.00;56.00;;;;;;5054757;28;19912;-71
2022/06/18 13:35:46;;;;;;;;;;;28.00;56.40;;;;;;5057897;28;19916;-71
2022/06/18 13:38:24;;;;;;;;;;;28.00;56.80;;;;;;5063247;28;20325;-71
2022/06/18 13:41:00;;;;;;;;;;;28.10;56.40;;;;;;5056208;28;19923;-71
2022/06/18 13:43:41;;;;;;;;;;;28.00;56.20;;;;;;5061573;28;20456;-70
2022/06/18 13:46:06;;;;;;;;;;;28.10;56.10;;;;;;5056363;28;19924;-71
2022/06/18 13:48:50;;;;;;;;;;;28.10;56.70;;;;;;5063979;28;19978;-71
2022/06/18 13:51:46;;;;;;;;;;;28.10;56.30;;;;;;5058920;28;19973;-71
2022/06/18 13:54:17;;;;;;;;;;;28.20;56.40;;;;;;5050335;28;19916;-71
2022/06/18 13:57:03;;;;;;;;;;;28.10;55.80;;;;;;5060945;28;19920;-70
2022/06/18 13:59:29;;;;;;;;;;;28.10;55.90;;;;;;5060990;28;20045;-71
2022/06/18 14:01:57;;;;;;;;;;;28.20;55.80;;;;;;5060296;28;20548;-71
2022/06/18 14:04:23;;;;;;;;;;;28.20;55.60;;;;;;5062737;28;19917;-71
2022/06/18 14:06:50;;;;;;;;;;;28.20;55.60;;;;;;5056423;28;19993;-71
2022/06/18 14:09:17;;;;;;;;;;;28.30;55.40;;;;;;5062572;28;20628;-71
2022/06/18 14:11:44;;;;;;;;;;;28.30;55.70;;;;;;5057943;28;19924;-71
2022/06/18 14:14:11;;;;;;;;;;;28.40;55.50;;;;;;5063785;28;20426;-72
2022/06/18 14:16:39;;;;;;;;;;;28.40;55.60;;;;;;5057382;28;19920;-71
2022/06/18 14:19:17;;;;;;;;;;;28.50;55.50;;;;;;5061486;28;19923;-71
2022/06/18 14:21:43;;;;;;;;;;;28.50;55.80;;;;;;5059529;28;19923;-71
2022/06/18 14:24:09;;;;;;;;;;;28.50;55.20;;;;;;5063162;28;19912;-71
2022/06/18 14:26:43;;;;;;;;;;;28.60;55.30;;;;;;5057937;28;20525;-71
2022/06/18 14:29:09;;;;;;;;;;;28.50;55.40;;;;;;5062035;28;19913;-71
2022/06/18 14:31:49;;;;;;;;;;;28.50;55.30;;;;;;5057630;28;19982;-71
2022/06/18 14:34:33;;;;;;;;;;;28.60;55.10;;;;;;5058854;28;19916;-71
2022/06/18 14:37:06;;;;;;;;;;;28.70;55.50;;;;;;5055409;28;19922;-71
2022/06/18 14:39:38;;;;;;;;;;;28.80;55.30;;;;;;5058756;28;19916;-71
2022/06/18 14:42:12;;;;;;;;;;;28.80;55.20;;;;;;5058732;28;20384;-71
2022/06/18 14:44:46;;;;;;;;;;;28.90;55.60;;;;;;5063634;28;20323;-71
2022/06/18 14:47:31;;;;;;;;;;;29.00;55.60;;;;;;5059414;28;19918;-71
2022/06/18 14:49:59;;;;;;;;;;;29.00;54.90;;;;;;5060887;28;19917;-71
2022/06/18 14:52:39;;;;;;;;;;;29.00;55.00;;;;;;5061022;28;19913;-72